Time;durP1;ratioP1;P1;durP2;ratioP2;P2;SDS_P1;SDS_P2;PMS_P1;PMS_P2;Temp;Humidity;BMP_temperature;BMP_pressure;BME280_temperature;BME280_humidity;BME280_pressure;Samples;Min_cycle;Max_cycle;Signal;HPM_P1;HPM_P2
2022/06/12 00:01:58;;;;;;;5.45;1.60;;;15.00;99.90;;;;;;5014206;28;20042;-69
2022/06/12 00:04:25;;;;;;;7.03;1.70;;;14.90;99.90;;;;;;5021292;28;20068;-69
2022/06/12 00:06:52;;;;;;;;;;;14.90;99.90;;;;;;5011842;28;20284;-69
2022/06/12 00:09:18;;;;;;;5.53;1.60;;;14.90;99.90;;;;;;5009692;28;19970;-70
2022/06/12 00:11:44;;;;;;;5.05;1.33;;;14.90;99.90;;;;;;5016465;28;20072;-70
2022/06/12 00:14:14;;;;;;;7.50;1.70;;;14.80;99.90;;;;;;5019456;28;20446;-70
2022/06/12 00:16:41;;;;;;;8.30;1.58;;;14.80;99.90;;;;;;5006769;28;20049;-69
2022/06/12 00:19:08;;;;;;;6.32;2.13;;;14.80;99.90;;;;;;5022175;28;20401;-70
2022/06/12 00:21:34;;;;;;;6.55;1.73;;;14.80;99.90;;;;;;5014037;28;20041;-70
2022/06/12 00:24:13;;;;;;;4.25;1.70;;;14.80;99.90;;;;;;5021504;28;20437;-70
2022/06/12 00:26:45;;;;;;;7.32;1.80;;;14.70;99.90;;;;;;5021048;28;20181;-70
2022/06/12 00:29:15;;;;;;;8.60;2.10;;;14.80;99.90;;;;;;4998662;28;20049;-70
2022/06/12 00:31:44;;;;;;;8.63;2.10;;;14.70;99.90;;;;;;5025105;28;20044;-70
2022/06/12 00:34:11;;;;;;;8.90;2.25;;;14.70;99.90;;;;;;5020476;28;20046;-70
2022/06/12 00:36:37;;;;;;;9.77;1.85;;;14.70;99.90;;;;;;5016785;28;20045;-70
2022/06/12 00:39:04;;;;;;;5.10;1.80;;;14.70;99.90;;;;;;5015304;28;20417;-70
2022/06/12 00:41:30;;;;;;;5.45;2.35;;;14.70;99.90;;;;;;5018352;28;20125;-70
2022/06/12 00:43:56;;;;;;;7.45;2.28;;;14.70;99.90;;;;;;5022129;28;20571;-69
2022/06/12 00:46:35;;;;;;;5.20;2.20;;;14.60;99.90;;;;;;5029357;28;20068;-69
2022/06/12 00:49:07;;;;;;;7.90;1.80;;;14.60;99.90;;;;;;5024246;28;20081;-69
2022/06/12 00:51:33;;;;;;;4.78;1.80;;;14.60;99.90;;;;;;5019778;28;20034;-69
2022/06/12 00:53:59;;;;;;;6.07;1.70;;;14.60;99.90;;;;;;5029329;28;20045;-69
2022/06/12 00:56:30;;;;;;;11.98;2.45;;;14.60;99.90;;;;;;5025112;28;20526;-69
2022/06/12 00:59:13;;;;;;;7.15;2.50;;;14.60;99.90;;;;;;5022544;28;20061;-69
2022/06/12 01:01:42;;;;;;;6.78;1.80;;;14.60;99.90;;;;;;5019263;28;20033;-69
2022/06/12 01:06:56;;;;;;;7.72;1.80;;;14.60;99.90;;;;;;5012798;28;20743;-68
2022/06/12 01:09:36;;;;;;;5.60;1.50;;;14.60;99.90;;;;;;5018340;28;20033;-76
2022/06/12 01:12:04;;;;;;;7.30;1.73;;;14.60;99.90;;;;;;5008012;28;20045;-69
2022/06/12 01:14:35;;;;;;;8.68;1.70;;;14.60;99.90;;;;;;5029323;28;20036;-69
2022/06/12 01:17:02;;;;;;;6.70;2.53;;;14.60;99.90;;;;;;5017010;28;20068;-69
2022/06/12 01:19:38;;;;;;;3.78;1.45;;;14.60;99.90;;;;;;5025418;28;20670;-69
2022/06/12 01:22:12;;;;;;;5.07;1.73;;;14.50;99.90;;;;;;5014186;28;20148;-69
2022/06/12 01:25:17;;;;;;;5.05;1.60;;;14.50;99.90;;;;;;5022530;28;20091;-70
2022/06/12 01:28:23;;;;;;;5.93;2.08;;;14.50;99.90;;;;;;4943319;28;20138;-70
2022/06/12 01:31:01;;;;;;;7.53;1.85;;;14.50;99.90;;;;;;5016500;28;20464;-69
2022/06/12 01:33:56;;;;;;;10.88;2.72;;;14.50;99.90;;;;;;5021800;28;20106;-70
2022/06/12 01:36:48;;;;;;;5.20;1.40;;;14.40;99.90;;;;;;5026529;28;20056;-70
2022/06/12 01:39:17;;;;;;;7.78;1.42;;;14.40;99.90;;;;;;5010821;28;20049;-70
2022/06/12 01:42:05;;;;;;;4.57;1.67;;;14.40;99.90;;;;;;5016477;28;20048;-70
2022/06/12 01:44:31;;;;;;;3.33;1.23;;;14.30;99.90;;;;;;5019115;28;20087;-70
2022/06/12 01:47:07;;;;;;;8.95;1.95;;;14.30;99.90;;;;;;5029619;28;20045;-69
2022/06/12 01:49:51;;;;;;;5.45;1.92;;;14.20;99.90;;;;;;5025394;28;20041;-70
2022/06/12 01:52:52;;;;;;;6.80;1.30;;;14.30;99.90;;;;;;5025285;22;20056;-74
2022/06/12 01:55:36;;;;;;;4.38;1.27;;;14.20;99.90;;;;;;4979864;28;20386;-74
2022/06/12 01:58:15;;;;;;;4.32;1.45;;;14.20;99.90;;;;;;5016433;28;20137;-74
2022/06/12 02:00:49;;;;;;;9.45;2.45;;;14.20;99.90;;;;;;5023148;28;20050;-74
2022/06/12 02:03:43;;;;;;;3.47;1.50;;;14.20;99.90;;;;;;5033269;28;20511;-74
2022/06/12 02:06:23;;;;;;;7.88;1.48;;;14.20;99.90;;;;;;5012429;28;20049;-74
2022/06/12 02:08:57;;;;;;;7.30;1.83;;;14.20;99.90;;;;;;5007035;28;20089;-75
2022/06/12 02:14:33;;;;;;;5.13;1.77;;;14.10;99.90;;;;;;5015843;28;20050;-75
2022/06/12 02:17:01;;;;;;;6.90;1.98;;;14.10;99.90;;;;;;5016647;28;20069;-75
2022/06/12 02:19:35;;;;;;;4.93;1.77;;;14.10;99.90;;;;;;5026415;28;20053;-75
2022/06/12 02:22:17;;;;;;;8.00;1.70;;;14.10;99.90;;;;;;5020734;28;20128;-75
2022/06/12 02:24:51;;;;;;;8.43;2.17;;;14.10;99.90;;;;;;5019683;28;20044;-74
2022/06/12 02:27:42;;;;;;;6.00;1.95;;;14.00;99.90;;;;;;5022903;28;20336;-74
2022/06/12 02:30:15;;;;;;;5.72;1.63;;;14.00;99.90;;;;;;5022169;28;20042;-74
2022/06/12 02:32:47;;;;;;;7.25;1.70;;;14.00;99.90;;;;;;5038442;28;20305;-74
2022/06/12 02:35:27;;;;;;;9.38;1.83;;;14.00;99.90;;;;;;5012507;28;20450;-74
2022/06/12 02:37:57;;;;;;;6.15;2.05;;;14.00;99.90;;;;;;5020012;28;20405;-74
2022/06/12 02:40:37;;;;;;;7.03;1.80;;;14.00;99.90;;;;;;5011910;28;20045;-74
2022/06/12 02:43:10;;;;;;;12.48;1.48;;;14.00;99.90;;;;;;5019104;28;20535;-74
2022/06/12 02:45:51;;;;;;;8.55;1.88;;;14.00;99.90;;;;;;5005570;28;20042;-74
2022/06/12 02:48:17;;;;;;;4.72;1.60;;;14.00;99.90;;;;;;5020521;28;20049;-74
2022/06/12 02:51:22;;;;;;;10.27;2.03;;;14.00;99.90;;;;;;5004539;28;20387;-74
2022/06/12 02:53:58;;;;;;;7.43;1.70;;;14.00;99.90;;;;;;4987122;28;20409;-74
2022/06/12 02:56:54;;;;;;;6.32;2.00;;;13.90;99.90;;;;;;5022547;28;20046;-74
2022/06/12 02:59:30;;;;;;;8.38;2.42;;;14.00;99.90;;;;;;5008849;28;20046;-74
2022/06/12 03:02:06;;;;;;;4.85;2.42;;;13.90;99.90;;;;;;5016955;28;20112;-74
2022/06/12 03:04:52;;;;;;;11.70;2.73;;;13.90;99.90;;;;;;5025198;28;20054;-74
2022/06/12 03:07:17;;;;;;;12.23;2.30;;;13.90;99.90;;;;;;5014444;28;20116;-74
2022/06/12 03:09:43;;;;;;;5.68;1.77;;;13.90;99.90;;;;;;5021268;28;20440;-74
2022/06/12 03:12:09;;;;;;;8.02;2.50;;;13.90;99.90;;;;;;5023086;28;20647;-74
2022/06/12 03:14:35;;;;;;;8.57;1.75;;;13.90;99.90;;;;;;5020731;28;20099;-73
2022/06/12 03:17:01;;;;;;;5.72;1.90;;;13.90;99.90;;;;;;5021404;28;20046;-73
2022/06/12 03:19:39;;;;;;;9.30;2.00;;;13.90;99.90;;;;;;5013769;28;20400;-73
2022/06/12 03:22:28;;;;;;;8.68;1.98;;;13.90;99.90;;;;;;4997095;28;20051;-73
2022/06/12 03:25:08;;;;;;;6.75;2.08;;;13.90;99.90;;;;;;5013924;28;20126;-74
2022/06/12 03:27:46;;;;;;;11.38;1.90;;;13.90;99.90;;;;;;5019274;28;20049;-74
2022/06/12 03:30:23;;;;;;;6.10;1.83;;;13.90;99.90;;;;;;5021674;28;20050;-74
2022/06/12 03:33:16;;;;;;;8.32;2.00;;;13.90;99.90;;;;;;5024352;28;20099;-73
2022/06/12 03:35:53;;;;;;;4.88;1.73;;;13.90;99.90;;;;;;5023097;28;20525;-74
2022/06/12 03:38:29;;;;;;;7.60;2.03;;;13.80;99.90;;;;;;5020628;28;20076;-73
2022/06/12 03:41:05;;;;;;;5.97;1.67;;;13.80;99.90;;;;;;5024994;28;20489;-74
2022/06/12 03:43:40;;;;;;;6.18;1.35;;;13.90;99.90;;;;;;5006636;28;20064;-74
2022/06/12 03:46:24;;;;;;;6.53;1.80;;;13.90;99.90;;;;;;5020274;28;20099;-74
2022/06/12 03:48:57;;;;;;;7.10;1.77;;;13.90;99.90;;;;;;5008236;28;20043;-74
2022/06/12 03:52:03;;;;;;;8.10;1.73;;;13.90;99.90;;;;;;5026721;28;20041;-73
2022/06/12 03:54:48;;;;;;;9.02;2.60;;;14.00;99.90;;;;;;5021009;28;20045;-73
2022/06/12 04:00:31;;;;;;;7.45;1.90;;;14.00;99.90;;;;;;5015326;28;20049;-74
2022/06/12 04:03:03;;;;;;;6.57;1.90;;;14.00;99.90;;;;;;5021187;28;20202;-73
2022/06/12 04:05:39;;;;;;;8.68;2.05;;;14.00;99.90;;;;;;5020033;28;20041;-73
2022/06/12 04:08:10;;;;;;;7.43;2.28;;;14.00;99.90;;;;;;5007850;28;20116;-73
2022/06/12 04:10:38;;;;;;;6.30;1.42;;;13.90;99.90;;;;;;5018743;28;20093;-73
2022/06/12 04:13:11;;;;;;;7.70;2.17;;;14.00;99.90;;;;;;5017734;28;20658;-73
2022/06/12 04:15:45;;;;;;;9.35;1.90;;;14.00;99.90;;;;;;5018144;28;20630;-73
2022/06/12 04:18:11;;;;;;;5.13;1.88;;;14.00;99.90;;;;;;5015380;28;20038;-73
2022/06/12 04:20:58;;;;;;;6.25;2.60;;;14.00;99.90;;;;;;5018960;28;20107;-73
2022/06/12 04:23:27;;;;;;;7.63;2.20;;;13.90;99.90;;;;;;5021345;28;20541;-73
2022/06/12 04:25:57;;;;;;;3.78;1.90;;;13.90;99.90;;;;;;5020579;28;20473;-74
2022/06/12 04:28:32;;;;;;;10.38;2.63;;;13.90;99.90;;;;;;5022597;28;20253;-73
2022/06/12 04:30:59;;;;;;;9.48;2.05;;;13.90;99.90;;;;;;5021348;28;20040;-74
2022/06/12 04:33:45;;;;;;;9.45;1.73;;;13.90;99.90;;;;;;5035916;28;20049;-74
2022/06/12 04:36:12;;;;;;;6.40;1.90;;;13.90;99.90;;;;;;5016497;28;20060;-74
2022/06/12 04:38:38;;;;;;;5.18;1.63;;;13.90;99.90;;;;;;5039441;28;20478;-74
2022/06/12 04:41:04;;;;;;;6.15;2.00;;;14.00;99.90;;;;;;5033088;28;20084;-74
2022/06/12 04:43:31;;;;;;;7.22;2.28;;;14.00;99.90;;;;;;5023141;28;20059;-74
2022/06/12 04:45:57;;;;;;;6.80;1.98;;;14.00;99.90;;;;;;5037614;28;20041;-74
2022/06/12 04:48:44;;;;;;;6.30;1.95;;;14.00;99.90;;;;;;5025343;28;20037;-74
2022/06/12 04:51:11;;;;;;;6.28;1.83;;;14.00;99.90;;;;;;5019533;28;20479;-74
2022/06/12 04:53:38;;;;;;;11.05;1.88;;;14.00;99.90;;;;;;5017904;28;20053;-74
2022/06/12 04:56:05;;;;;;;10.65;2.05;;;14.00;99.90;;;;;;5026075;28;20538;-74
2022/06/12 04:58:31;;;;;;;6.80;1.85;;;14.10;99.90;;;;;;5021757;28;20048;-74
2022/06/12 05:00:57;;;;;;;10.23;2.65;;;14.10;99.90;;;;;;5019075;28;20494;-74
2022/06/12 05:03:23;;;;;;;5.47;2.47;;;14.20;99.90;;;;;;5021296;28;20045;-73
2022/06/12 05:05:49;;;;;;;8.38;2.42;;;14.20;99.90;;;;;;5021677;28;20053;-73
2022/06/12 05:08:15;;;;;;;7.03;2.42;;;14.30;99.90;;;;;;5023147;28;20498;-73
2022/06/12 05:10:41;;;;;;;7.32;1.90;;;14.30;99.90;;;;;;5027875;28;20041;-73
2022/06/12 05:13:08;;;;;;;7.38;1.60;;;14.40;99.90;;;;;;5022064;28;20127;-73
2022/06/12 05:15:33;;;;;;;;;;;14.40;99.90;;;;;;5025780;28;20052;-73
2022/06/12 05:17:59;;;;;;;8.38;2.00;;;14.50;99.90;;;;;;5018832;28;19917;-73
2022/06/12 05:20:28;;;;;;;9.82;1.85;;;14.50;99.90;;;;;;5028537;28;20078;-73
2022/06/12 05:22:55;;;;;;;8.27;2.10;;;14.50;99.90;;;;;;5022174;28;20084;-73
2022/06/12 05:25:21;;;;;;;9.40;2.17;;;14.60;99.90;;;;;;5019734;28;20041;-73
2022/06/12 05:27:48;;;;;;;14.68;2.47;;;14.70;99.90;;;;;;5023418;28;20509;-74
2022/06/12 05:30:15;;;;;;;;;;;14.70;99.90;;;;;;5021328;28;20098;-74
2022/06/12 05:32:41;;;;;;;13.82;3.47;;;14.80;99.90;;;;;;5018969;28;19917;-73
2022/06/12 05:35:08;;;;;;;11.13;2.47;;;14.80;99.90;;;;;;5022995;28;20492;-73
2022/06/12 05:37:34;;;;;;;11.40;2.08;;;14.80;99.90;;;;;;5013139;28;20045;-73
2022/06/12 05:40:00;;;;;;;11.85;2.55;;;14.90;99.90;;;;;;5019192;28;20120;-74
2022/06/12 05:42:25;;;;;;;9.95;3.33;;;14.90;99.90;;;;;;5011926;28;20439;-73
2022/06/12 05:44:51;;;;;;;8.73;2.27;;;15.00;99.90;;;;;;5028818;28;20040;-74
2022/06/12 05:47:18;;;;;;;11.68;2.08;;;15.00;99.90;;;;;;5025403;28;20383;-73
2022/06/12 05:49:44;;;;;;;12.57;2.75;;;15.10;99.90;;;;;;5020233;28;20116;-73
2022/06/12 05:52:09;;;;;;;7.72;2.33;;;15.10;99.90;;;;;;5009503;28;20128;-74
2022/06/12 05:54:35;;;;;;;11.95;2.90;;;15.20;99.90;;;;;;5021364;28;20499;-74
2022/06/12 05:57:01;;;;;;;11.88;2.88;;;15.30;99.90;;;;;;5019565;28;20054;-74
2022/06/12 05:59:26;;;;;;;9.68;3.30;;;15.30;99.90;;;;;;5023786;28;20394;-74
2022/06/12 06:01:52;;;;;;;7.20;2.63;;;15.40;99.90;;;;;;5014367;28;20046;-74
2022/06/12 06:04:18;;;;;;;8.98;2.70;;;15.50;99.90;;;;;;5020830;28;20110;-74
2022/06/12 06:06:53;;;;;;;9.83;2.93;;;15.50;99.90;;;;;;5018884;28;20736;-73
2022/06/12 06:09:19;;;;;;;8.18;2.17;;;15.50;99.90;;;;;;5012843;28;20593;-74
2022/06/12 06:11:46;;;;;;;8.57;2.60;;;15.60;99.90;;;;;;5019670;28;20117;-74
2022/06/12 06:14:12;;;;;;;10.80;2.72;;;15.60;99.90;;;;;;5019022;28;20053;-74
2022/06/12 06:16:39;;;;;;;;;;;15.70;99.90;;;;;;5023563;28;20047;-74
2022/06/12 06:19:06;;;;;;;10.88;2.83;;;15.80;99.90;;;;;;5021325;28;20063;-74
2022/06/12 06:21:31;;;;;;;;;;;15.90;99.90;;;;;;5018085;28;20041;-74
2022/06/12 06:23:57;;;;;;;8.25;3.38;;;15.90;99.90;;;;;;5023062;28;20273;-74
2022/06/12 06:26:23;;;;;;;8.73;3.00;;;15.90;99.90;;;;;;5026264;28;20420;-74
2022/06/12 06:28:53;;;;;;;;;;;16.00;99.90;;;;;;5021074;28;20379;-74
2022/06/12 06:31:19;;;;;;;12.80;2.90;;;16.10;99.90;;;;;;5021300;28;19929;-74
2022/06/12 06:33:45;;;;;;;15.00;3.53;;;16.10;99.90;;;;;;5023008;28;20488;-74
2022/06/12 06:36:12;;;;;;;8.88;3.17;;;16.20;99.90;;;;;;5021026;28;20041;-74
2022/06/12 06:38:38;;;;;;;14.90;3.47;;;16.30;99.90;;;;;;4992254;28;20111;-74
2022/06/12 06:41:05;;;;;;;15.23;3.05;;;16.30;99.90;;;;;;5016819;28;20772;-74
2022/06/12 06:46:13;;;;;;;14.15;3.63;;;16.40;99.90;;;;;;5017593;28;20124;-73
2022/06/12 06:46:16;;;;;;;19.40;4.95;;;16.50;99.90;;;;;;5020893;28;20041;-73
2022/06/12 06:48:42;;;;;;;14.85;3.20;;;16.60;99.90;;;;;;5016514;28;20040;-73
2022/06/12 06:51:08;;;;;;;19.33;2.95;;;16.70;99.90;;;;;;5009270;28;20120;-73
2022/06/12 06:53:33;;;;;;;13.30;3.42;;;16.70;99.90;;;;;;5018963;28;20072;-73
2022/06/12 06:55:59;;;;;;;13.98;3.25;;;16.80;99.90;;;;;;5020397;28;20041;-73
2022/06/12 06:58:26;;;;;;;8.65;3.33;;;16.90;99.90;;;;;;5019922;28;20048;-73
2022/06/12 07:00:53;;;;;;;13.90;3.20;;;17.00;99.90;;;;;;5016416;28;20427;-74
2022/06/12 07:03:20;;;;;;;15.30;3.33;;;17.00;99.90;;;;;;5020847;28;20037;-73
2022/06/12 07:05:47;;;;;;;14.30;4.03;;;17.10;99.90;;;;;;5023602;28;20049;-73
2022/06/12 07:08:14;;;;;;;12.30;2.70;;;17.10;99.90;;;;;;5002524;28;20041;-73
2022/06/12 07:10:40;;;;;;;13.38;2.95;;;17.20;99.90;;;;;;5007756;28;20437;-73
2022/06/12 07:13:06;;;;;;;;;;;17.20;99.90;;;;;;5006503;28;20114;-73
2022/06/12 07:15:33;;;;;;;12.95;2.20;;;17.20;99.90;;;;;;5014482;28;20348;-73
2022/06/12 07:17:59;;;;;;;9.52;2.42;;;17.30;99.90;;;;;;5019541;28;20046;-73
2022/06/12 07:20:29;;;;;;;9.48;2.55;;;17.30;99.90;;;;;;5012906;28;20053;-73
2022/06/12 07:22:55;;;;;;;11.68;2.60;;;17.30;99.90;;;;;;5013158;28;20041;-74
2022/06/12 07:25:21;;;;;;;14.15;3.10;;;17.40;99.90;;;;;;5021973;28;20056;-73
2022/06/12 07:27:47;;;;;;;9.38;3.20;;;17.40;99.90;;;;;;4980361;28;20053;-74
2022/06/12 07:30:16;;;;;;;;;;;17.40;99.90;;;;;;5012399;28;20037;-74
2022/06/12 07:32:42;;;;;;;10.75;1.80;;;17.50;99.90;;;;;;5012790;28;19925;-73
2022/06/12 07:35:08;;;;;;;7.00;1.85;;;17.50;99.90;;;;;;5014641;28;20045;-73
2022/06/12 07:37:35;;;;;;;13.18;2.70;;;17.60;99.90;;;;;;5010772;28;20075;-73
2022/06/12 07:40:03;;;;;;;9.55;2.22;;;17.60;99.90;;;;;;4999338;28;20473;-73
2022/06/12 07:42:29;;;;;;;12.13;2.50;;;17.60;99.90;;;;;;5020173;28;20095;-73
2022/06/12 07:44:54;;;;;;;10.68;2.17;;;17.70;99.90;;;;;;5010534;28;20447;-73
2022/06/12 07:47:20;;;;;;;7.65;2.22;;;17.90;99.90;;;;;;5012184;28;20056;-74
2022/06/12 07:49:46;;;;;;;8.70;2.00;;;17.90;99.90;;;;;;5015663;28;20037;-73
2022/06/12 07:52:12;;;;;;;12.00;2.28;;;18.00;99.90;;;;;;5017298;28;20053;-73
2022/06/12 07:54:39;;;;;;;7.13;1.90;;;18.00;99.90;;;;;;5018435;28;20045;-73
2022/06/12 07:57:07;;;;;;;6.35;1.67;;;18.10;99.90;;;;;;5014175;28;20049;-73
2022/06/12 07:59:33;;;;;;;9.02;2.13;;;18.10;99.90;;;;;;5027154;28;20500;-73
2022/06/12 08:01:59;;;;;;;5.40;1.90;;;18.20;99.90;;;;;;5017501;28;20084;-74
2022/06/12 08:04:25;;;;;;;11.65;2.03;;;18.20;99.90;;;;;;5019506;28;20064;-74
2022/06/12 08:06:51;;;;;;;14.77;2.20;;;18.30;99.90;;;;;;5010172;28;21077;-75
2022/06/12 08:09:17;;;;;;;7.10;1.75;;;18.40;99.90;;;;;;5011317;28;21294;-74
2022/06/12 08:11:45;;;;;;;9.65;2.13;;;18.50;99.90;;;;;;5179217;22;20052;-68
2022/06/12 08:14:12;;;;;;;7.78;1.83;;;18.60;99.90;;;;;;5062839;28;20044;-69
2022/06/12 08:16:38;;;;;;;5.18;1.83;;;18.70;99.90;;;;;;5065322;28;20404;-69
2022/06/12 08:20:24;;;;;;;7.82;1.60;;;18.70;99.90;;;;;;5049765;28;20033;-69
2022/06/12 08:21:50;;;;;;;4.75;1.45;;;18.70;99.90;;;;;;5020215;28;20092;-68
2022/06/12 08:24:16;;;;;;;5.53;1.55;;;18.70;99.90;;;;;;5023462;28;20064;-68
2022/06/12 08:26:41;;;;;;;6.03;1.50;;;18.70;99.90;;;;;;5046413;28;20068;-69
2022/06/12 08:29:09;;;;;;;5.53;1.33;;;18.70;99.90;;;;;;5042712;28;20053;-68
2022/06/12 08:31:38;;;;;;;9.82;1.73;;;18.80;99.90;;;;;;5046373;28;20317;-68
2022/06/12 08:34:34;;;;;;;3.85;1.60;;;18.80;99.90;;;;;;5011965;28;20276;-69
2022/06/12 08:37:05;;;;;;;8.05;1.55;;;18.80;99.90;;;;;;5009378;28;20490;-69
2022/06/12 08:39:31;;;;;;;4.60;1.33;;;18.90;99.90;;;;;;5032305;28;20047;-69
2022/06/12 08:42:07;;;;;;;7.45;1.48;;;18.90;99.90;;;;;;5015636;28;20044;-69
2022/06/12 08:44:49;;;;;;;;;;;19.10;99.90;;;;;;5030376;28;20055;-68
2022/06/12 08:47:39;;;;;;;4.30;1.20;;;19.20;99.90;;;;;;5019533;28;20007;-68
2022/06/12 08:50:30;;;;;;;8.88;2.20;;;19.30;99.90;;;;;;5040534;28;20064;-68
2022/06/12 08:53:16;;;;;;;3.97;1.30;;;19.30;99.90;;;;;;5024491;28;20048;-68
2022/06/12 08:55:50;;;;;;;5.05;1.10;;;19.20;99.90;;;;;;5049861;28;20056;-68
2022/06/12 08:58:19;;;;;;;7.75;1.27;;;19.00;99.90;;;;;;5027361;28;20041;-69
2022/06/12 09:00:46;;;;;;;6.25;1.20;;;19.00;99.90;;;;;;5021814;28;20429;-69
2022/06/12 09:03:18;;;;;;;4.35;1.20;;;19.00;99.90;;;;;;5028521;28;20068;-68
2022/06/12 09:06:07;;;;;;;6.15;1.63;;;19.00;99.90;;;;;;5007596;28;20083;-69
2022/06/12 09:08:48;;;;;;;4.70;1.30;;;19.10;99.90;;;;;;5018878;28;20505;-69
2022/06/12 09:11:46;;;;;;;5.00;1.10;;;19.10;99.90;;;;;;5017563;28;20072;-69
2022/06/12 09:14:50;;;;;;;4.25;1.00;;;19.10;99.90;;;;;;5017492;28;20052;-68
2022/06/12 09:17:32;;;;;;;5.65;1.25;;;19.10;99.90;;;;;;5039874;28;20040;-68
2022/06/12 09:20:21;;;;;;;4.43;1.35;;;19.20;99.90;;;;;;5016085;28;20498;-69
2022/06/12 09:22:58;;;;;;;5.35;1.60;;;19.30;99.90;;;;;;5016815;28;20037;-69
2022/06/12 09:25:48;;;;;;;3.33;1.52;;;19.30;99.90;;;;;;5039345;28;20048;-69
2022/06/12 09:28:43;;;;;;;5.63;1.83;;;19.30;99.90;;;;;;5026512;28;20045;-69
2022/06/12 09:31:12;;;;;;;3.83;1.30;;;19.40;99.90;;;;;;5027355;28;20049;-69
2022/06/12 09:33:56;;;;;;;8.07;1.88;;;19.50;99.90;;;;;;5030173;28;20040;-69
2022/06/12 09:36:43;;;;;;;6.47;1.10;;;19.60;99.90;;;;;;5026603;28;20045;-68
2022/06/12 09:39:41;;;;;;;5.55;1.02;;;19.80;99.90;;;;;;5022902;28;20048;-70
2022/06/12 09:42:22;;;;;;;4.72;1.02;;;19.90;99.90;;;;;;5016648;28;20049;-69
2022/06/12 09:45:05;;;;;;;3.42;1.20;;;20.00;99.90;;;;;;5039046;28;20044;-69
2022/06/12 09:48:21;;;;;;;5.10;1.70;;;19.90;99.90;;;;;;5023410;28;20040;-69
2022/06/12 09:51:14;;;;;;;4.60;1.20;;;19.80;99.90;;;;;;4964942;28;20423;-68
2022/06/12 09:54:24;;;;;;;4.07;1.15;;;19.60;99.90;;;;;;4955204;28;20065;-69
2022/06/12 09:57:29;;;;;;;11.73;1.50;;;19.50;99.90;;;;;;4985735;28;20056;-71
2022/06/12 10:00:03;;;;;;;3.63;1.05;;;19.50;99.90;;;;;;4973635;28;20556;-69
2022/06/12 10:02:48;;;;;;;3.13;1.20;;;19.60;99.90;;;;;;5034969;28;20045;-69
2022/06/12 10:05:47;;;;;;;6.25;1.23;;;19.60;99.90;;;;;;5038599;28;20045;-69
2022/06/12 10:08:26;;;;;;;7.25;1.55;;;19.60;99.90;;;;;;5001844;28;20142;-69
2022/06/12 10:11:08;;;;;;;3.33;1.08;;;19.60;99.90;;;;;;5026989;28;20037;-69
2022/06/12 10:14:17;;;;;;;5.93;1.40;;;19.60;99.90;;;;;;5031841;28;20041;-68
2022/06/12 10:17:22;;;;;;;3.83;0.95;;;19.50;99.90;;;;;;4996687;28;20414;-69
2022/06/12 10:20:04;;;;;;;5.40;1.50;;;19.60;99.90;;;;;;4960398;28;20053;-69
2022/06/12 10:22:34;;;;;;;5.43;1.38;;;19.50;99.90;;;;;;5013346;28;20080;-69
2022/06/12 10:25:04;;;;;;;4.68;1.40;;;19.50;99.90;;;;;;5010022;28;20078;-69
2022/06/12 10:28:11;;;;;;;5.90;1.38;;;19.50;99.90;;;;;;5012465;28;20389;-69
2022/06/12 10:30:56;;;;;;;5.65;1.42;;;19.50;99.90;;;;;;5016257;28;20052;-69
2022/06/12 10:33:42;;;;;;;7.75;4.22;;;19.50;99.90;;;;;;5049723;28;20041;-69
2022/06/12 10:36:28;;;;;;;4.30;1.50;;;19.60;99.90;;;;;;5023934;28;20041;-69
2022/06/12 10:39:24;;;;;;;10.65;2.33;;;19.60;99.90;;;;;;5015667;28;20438;-69
2022/06/12 10:41:53;;;;;;;5.15;1.55;;;19.70;99.90;;;;;;5032350;28;20236;-69
2022/06/12 10:44:33;;;;;;;3.47;1.40;;;19.60;99.90;;;;;;5015980;28;20046;-69
2022/06/12 10:47:32;;;;;;;5.95;1.15;;;19.50;99.90;;;;;;5001923;28;20040;-69
2022/06/12 10:50:19;;;;;;;9.32;1.55;;;19.40;99.90;;;;;;5020605;28;20032;-69
2022/06/12 10:52:57;;;;;;;7.18;1.65;;;19.30;99.90;;;;;;5034802;28;20471;-69
2022/06/12 10:55:49;;;;;;;4.38;1.38;;;19.20;99.90;;;;;;5024979;28;20056;-69
2022/06/12 10:59:02;;;;;;;9.38;2.50;;;19.20;99.90;;;;;;5040454;28;20049;-69
2022/06/12 11:01:41;;;;;;;4.88;1.50;;;19.30;99.90;;;;;;5019980;28;20701;-69
2022/06/12 11:04:12;;;;;;;7.60;1.13;;;19.40;99.90;;;;;;5043399;28;20041;-69
2022/06/12 11:07:03;;;;;;;8.27;2.83;;;19.60;99.90;;;;;;5047870;28;20041;-69
2022/06/12 11:10:14;;;;;;;5.57;1.90;;;19.70;99.90;;;;;;5044639;28;20485;-69
2022/06/12 11:13:10;;;;;;;6.70;1.58;;;19.90;99.90;;;;;;5001845;28;20061;-70
2022/06/12 11:15:53;;;;;;;7.00;1.40;;;20.10;99.90;;;;;;5040001;28;20055;-69
2022/06/12 11:18:30;;;;;;;4.25;1.65;;;20.20;99.90;;;;;;5017587;28;20461;-70
2022/06/12 11:21:34;;;;;;;5.32;1.38;;;20.20;99.90;;;;;;5023527;28;20136;-69
2022/06/12 11:24:20;;;;;;;7.70;1.65;;;20.20;99.90;;;;;;5026321;28;20049;-70
2022/06/12 11:27:17;;;;;;;6.03;1.35;;;20.00;99.90;;;;;;5043516;28;20071;-71
2022/06/12 11:30:05;;;;;;;;;;;19.80;99.90;;;;;;5041878;28;20110;-72
2022/06/12 11:32:47;;;;;;;4.45;1.38;;;19.60;99.90;;;;;;5033263;28;20401;-75
2022/06/12 11:35:23;;;;;;;4.72;1.30;;;19.70;99.90;;;;;;5042091;28;20572;-73
2022/06/12 11:38:16;;;;;;;5.05;1.40;;;19.70;99.90;;;;;;5013547;28;20059;-68
2022/06/12 11:40:48;;;;;;;7.68;1.58;;;19.80;99.90;;;;;;5028940;28;20162;-69
2022/06/12 11:43:40;;;;;;;5.50;1.70;;;19.80;99.90;;;;;;5053469;28;20041;-70
2022/06/12 11:46:18;;;;;;;5.53;1.40;;;19.80;99.90;;;;;;5039405;28;20037;-68
2022/06/12 11:49:12;;;;;;;6.63;2.05;;;19.90;99.90;;;;;;5041037;28;20043;-71
2022/06/12 11:52:13;;;;;;;4.32;1.35;;;19.90;99.90;;;;;;5033243;28;20048;-69
2022/06/12 11:54:47;;;;;;;6.60;1.58;;;19.90;99.90;;;;;;5037161;28;20151;-68
2022/06/12 11:57:32;;;;;;;2.90;1.05;;;19.90;99.90;;;;;;5023964;28;20568;-69
2022/06/12 12:00:37;;;;;;;7.45;1.55;;;20.00;99.90;;;;;;5031253;28;20582;-67
2022/06/12 12:03:48;;;;;;;5.15;1.15;;;20.10;99.90;;;;;;5002286;28;20383;-68
2022/06/12 12:06:33;;;;;;;5.13;1.45;;;20.10;98.40;;;;;;5046725;28;20109;-68
2022/06/12 12:09:21;;;;;;;5.57;1.27;;;20.10;99.50;;;;;;5027881;28;20090;-68
2022/06/12 12:12:04;;;;;;;3.38;1.73;;;20.30;99.90;;;;;;5018956;28;20128;-69
2022/06/12 12:14:36;;;;;;;7.78;1.60;;;20.40;95.20;;;;;;5022827;28;20052;-68
2022/06/12 12:17:21;;;;;;;6.00;1.23;;;20.40;94.10;;;;;;5008276;28;20430;-68
2022/06/12 12:20:00;;;;;;;6.07;1.25;;;20.30;96.60;;;;;;5023457;28;20099;-68
2022/06/12 12:22:36;;;;;;;5.32;1.35;;;20.30;96.90;;;;;;5000624;28;20033;-69
2022/06/12 12:25:37;;;;;;;2.58;0.93;;;20.20;98.60;;;;;;5025729;28;20050;-68
2022/06/12 12:28:20;;;;;;;3.47;1.45;;;20.20;95.50;;;;;;5031806;28;20449;-68
2022/06/12 12:30:46;;;;;;;6.50;1.33;;;20.10;95.10;;;;;;5027235;28;20057;-69
2022/06/12 12:33:19;;;;;;;4.28;1.05;;;20.10;98.60;;;;;;5024578;28;20048;-68
2022/06/12 12:41:20;;;;;;;2.75;0.82;;;20.20;96.50;;;;;;5017350;28;20041;-68
2022/06/12 12:43:53;;;;;;;4.25;1.27;;;20.00;97.00;;;;;;5010468;28;20036;-67
2022/06/12 12:46:20;;;;;;;7.13;1.45;;;20.00;98.10;;;;;;5052260;28;20668;-68
2022/06/12 12:48:49;;;;;;;4.50;1.52;;;20.00;98.80;;;;;;5013709;28;20041;-68
2022/06/12 12:51:27;;;;;;;2.90;1.25;;;20.00;98.00;;;;;;5018535;28;20056;-68
2022/06/12 12:54:04;;;;;;;6.80;1.50;;;20.20;98.60;;;;;;5030746;28;20106;-68
2022/06/12 12:56:33;;;;;;;7.78;1.40;;;20.10;99.60;;;;;;5018514;28;20461;-68
2022/06/12 12:59:05;;;;;;;5.75;1.08;;;19.90;99.90;;;;;;5043788;28;20045;-68
2022/06/12 13:01:40;;;;;;;4.28;1.13;;;19.90;99.90;;;;;;5033197;28;20048;-68
2022/06/12 13:04:22;;;;;;;5.45;1.60;;;20.00;99.90;;;;;;5030426;28;20044;-68
2022/06/12 13:07:16;;;;;;;6.45;1.50;;;20.00;99.90;;;;;;5044681;28;20093;-68
2022/06/12 13:09:54;;;;;;;7.60;1.75;;;20.20;99.90;;;;;;5031165;28;20076;-68
2022/06/12 13:12:35;;;;;;;6.75;1.58;;;20.50;99.90;;;;;;5044714;28;20413;-69
2022/06/12 13:15:26;;;;;;;7.00;2.05;;;20.60;99.90;;;;;;5015025;28;20045;-68
2022/06/12 13:17:58;;;;;;;5.05;1.50;;;20.60;97.20;;;;;;5049033;28;20651;-69
2022/06/12 13:20:43;;;;;;;5.72;2.00;;;20.40;97.50;;;;;;5034323;28;20080;-68
2022/06/12 13:23:37;;;;;;;6.55;1.77;;;20.40;99.80;;;;;;5045873;28;20503;-68
2022/06/12 13:26:08;;;;;;;5.45;1.58;;;20.30;95.70;;;;;;5044089;28;20048;-68
2022/06/12 13:28:35;;;;;;;5.10;1.55;;;20.00;99.90;;;;;;5036702;28;20045;-68
2022/06/12 13:31:03;;;;;;;5.57;1.30;;;20.00;99.90;;;;;;5032692;28;20426;-68
2022/06/12 13:33:32;;;;;;;5.32;1.50;;;20.00;99.90;;;;;;5032332;28;20033;-68
2022/06/12 13:36:02;;;;;;;5.53;1.55;;;20.10;99.90;;;;;;5048429;28;20394;-68
2022/06/12 13:38:28;;;;;;;4.80;2.55;;;20.10;99.90;;;;;;5025979;28;20382;-69
2022/06/12 13:41:06;;;;;;;4.75;1.30;;;20.20;99.90;;;;;;5006785;28;20037;-69
2022/06/12 13:43:34;;;;;;;4.78;1.40;;;20.20;96.50;;;;;;5043705;28;20034;-69
2022/06/12 13:46:22;;;;;;;4.18;1.48;;;20.20;99.70;;;;;;5048143;28;20114;-68
2022/06/12 13:48:48;;;;;;;5.32;1.40;;;20.30;99.60;;;;;;5030149;28;20719;-68